^^
Station Historical Data
Daily Summary for April 13, 2017 Units:  Metric    English   Both
« Previous Day
Next Day »
Daily Weekly Monthly Yearly Custom
  High: Low: Average:
Temperature: 21.5 °C 12.4 °C 15 °C
Dew Point: 9.6 °C 7.3 °C 8.8 °C
Humidity: 81% 40% 68%
Wind Speed: 30.6km/h 0km/h 15.9km/h
Wind Gust: 37km/h - -
Wind- - South
Pressure: 1016.1 hPa 1008.7 hPa -
Precipitation: 0 mm    
Historical Graphs
 
 
Tabular Data for April 13, 2017
Time Temperature Dew Point Pressure Wind Wind Speed Wind Gust Humidity Rainfall Rate (Hourly) solar Conditions
00:04 13.9 °C 9.3 °C 1009.4 hPa SSW 7.9 km/h 14.5 km/h 74% 0 mm 0.0 W/m2
00:13 13.8 °C 9.4 °C 1009.4 hPa SSW 13 km/h 16.1 km/h 75% 0 mm 0.0 W/m2
00:24 13.7 °C 9.3 °C 1009 hPa SSW 7.9 km/h 12.9 km/h 75% 0 mm 0.0 W/m2
00:36 13.6 °C 9.3 °C 1009 hPa SSW 11.1 km/h 12.9 km/h 75% 0 mm 0.0 W/m2
00:45 13.3 °C 9.4 °C 1009 hPa SSW 9.7 km/h 11.3 km/h 77% 0 mm 0.0 W/m2
00:59 13.1 °C 9.4 °C 1008.7 hPa SSW 6.4 km/h 8 km/h 78% 0 mm 0.0 W/m2
01:10 12.9 °C 9.2 °C 1008.7 hPa Calm     78% 0 mm 0.0 W/m2
01:20 12.7 °C 9.2 °C 1008.7 hPa Calm     79% 0 mm 0.0 W/m2
01:31 12.7 °C 9.3 °C 1008.7 hPa SSW 9.7 km/h 9.7 km/h 80% 0 mm 0.0 W/m2
01:44 12.8 °C 9.6 °C 1008.7 hPa SSW 11.1 km/h 16.1 km/h 81% 0 mm 0.0 W/m2
01:54 12.8 °C 9.4 °C 1008.7 hPa SSW 7.9 km/h 14.5 km/h 80% 0 mm 0.0 W/m2
01:59 12.7 °C 9.3 °C 1008.7 hPa SSW 9.7 km/h 11.3 km/h 80% 0 mm 0.0 W/m2
02:05 12.6 °C 9.4 °C 1008.7 hPa SSW 11.1 km/h 16.1 km/h 81% 0 mm 0.0 W/m2
02:14 12.6 °C 9.2 °C 1008.7 hPa SSW 9.7 km/h 16.1 km/h 80% 0 mm 0.0 W/m2
02:25 12.5 °C 9.3 °C 1008.7 hPa SSW 13 km/h 14.5 km/h 81% 0 mm 0.0 W/m2
02:32 12.4 °C 9 °C 1008.7 hPa SSW 16.3 km/h 20.9 km/h 80% 0 mm 0.0 W/m2
02:44 12.4 °C 9.2 °C 1009 hPa SSW 17.7 km/h 27.4 km/h 81% 0 mm 0.0 W/m2
15:33 21.5 °C 7.3 °C 1011.4 hPa SE 13 km/h 25.7 km/h 40% 0 mm 374.0 W/m2
15:44 21.2 °C 7.8 °C 1011.4 hPa SSE 11.1 km/h 24.1 km/h 42% 0 mm 339.0 W/m2
15:50 21.4 °C 7.6 °C 1011.7 hPa South 17.7 km/h 27.4 km/h 41% 0 mm 323.0 W/m2
16:03 21 °C 7.6 °C 1011.7 hPa SSE 19.5 km/h 25.7 km/h 42% 0 mm 230.0 W/m2
16:18 20.7 °C 7.7 °C 1011.7 hPa South 19.5 km/h 20.9 km/h 43% 0 mm 237.0 W/m2
16:28 20.5 °C 7.5 °C 1011.7 hPa South 20.9 km/h 27.4 km/h 43% 0 mm 188.0 W/m2
16:55 19.7 °C 7.8 °C 1011.7 hPa SSE 22.7 km/h 29 km/h 46% 0 mm 60.0 W/m2
17:13 19.5 °C 8.2 °C 1012.1 hPa South 22.7 km/h 30.6 km/h 48% 0 mm 25.0 W/m2
17:24 18.9 °C 8.2 °C 1012.1 hPa SSE 19.5 km/h 27.4 km/h 50% 0 mm 11.0 W/m2
17:38 18.4 °C 8.4 °C 1012.4 hPa SSE 19.5 km/h 27.4 km/h 52% 0 mm 0.0 W/m2
18:09 17.7 °C 8.5 °C 1012.8 hPa South 25.9 km/h 29 km/h 55% 0 mm 0.0 W/m2
18:54 16.3 °C 9.2 °C 1013.4 hPa South 30.6 km/h 32.2 km/h 63% 0 mm 0.0 W/m2
19:07 16 °C 9.2 °C 1013.4 hPa South 30.6 km/h 37 km/h 64% 0 mm 0.0 W/m2
19:18 15.8 °C 9.2 °C 1013.8 hPa South 19.5 km/h 32.2 km/h 65% 0 mm 0.0 W/m2
19:32 15.6 °C 9.3 °C 1013.8 hPa South 20.9 km/h 32.2 km/h 66% 0 mm 0.0 W/m2
19:52 15.3 °C 9.2 °C 1014.1 hPa SSW 24.1 km/h 30.6 km/h 67% 0 mm 0.0 W/m2
20:13 15.1 °C 9.2 °C 1014.4 hPa South 25.9 km/h 25.9 km/h 68% 0 mm 0.0 W/m2
20:29 14.9 °C 9 °C 1014.8 hPa South 20.9 km/h 27.4 km/h 68% 0 mm 0.0 W/m2
20:38 14.8 °C 9 °C 1014.8 hPa South 16.3 km/h 24.1 km/h 68% 0 mm 0.0 W/m2
20:47 14.7 °C 9.1 °C 1015.1 hPa SSE 24.1 km/h 29 km/h 69% 0 mm 0.0 W/m2
21:07 14.4 °C 8.8 °C 1015.1 hPa SSE 19.5 km/h 30.6 km/h 69% 0 mm 0.0 W/m2
21:15 14.3 °C 8.7 °C 1015.1 hPa South 22.7 km/h 25.7 km/h 69% 0 mm 0.0 W/m2
21:24 14.3 °C 8.7 °C 1015.1 hPa South 14.3 km/h 24.1 km/h 69% 0 mm 0.0 W/m2
21:29 14.2 °C 8.6 °C 1015.1 hPa SSW 17.7 km/h 19.3 km/h 69% 0 mm 0.0 W/m2
21:35 14.2 °C 8.6 °C 1015.1 hPa SSW 19.5 km/h 19.5 km/h 69% 0 mm 0.0 W/m2
21:40 14.1 °C 8.7 °C 1015.5 hPa SSW 17.7 km/h 22.5 km/h 70% 0 mm 0.0 W/m2
21:45 14.1 °C 8.7 °C 1015.1 hPa SSW 19.5 km/h 27.4 km/h 70% 0 mm 0.0 W/m2
21:55 14.1 °C 8.7 °C 1015.1 hPa SSW 14.3 km/h 24.1 km/h 70% 0 mm 0.0 W/m2
22:01 13.9 °C 8.5 °C 1015.1 hPa South 16.3 km/h 22.5 km/h 70% 0 mm 0.0 W/m2
22:09 13.9 °C 8.5 °C 1015.5 hPa SSW 16.3 km/h 17.7 km/h 70% 0 mm 0.0 W/m2
22:20 13.7 °C 8.5 °C 1015.5 hPa SSW 16.3 km/h 22.5 km/h 71% 0 mm 0.0 W/m2
22:36 13.6 °C 8.6 °C 1015.8 hPa South 22.7 km/h 24.1 km/h 72% 0 mm 0.0 W/m2
22:51 13.4 °C 8.7 °C 1015.8 hPa SSW 14.3 km/h 19.3 km/h 73% 0 mm 0.0 W/m2
23:04 13.3 °C 8.6 °C 1015.8 hPa SSW 14.3 km/h 17.7 km/h 73% 0 mm 0.0 W/m2
23:16 13.2 °C 8.7 °C 1016.1 hPa SSW 14.3 km/h 17.7 km/h 74% 0 mm 0.0 W/m2
23:30 13.1 °C 8.6 °C 1016.1 hPa SSW 9.7 km/h 16.1 km/h 74% 0 mm 0.0 W/m2
23:40 13 °C 8.5 °C 1015.8 hPa SSW 16.3 km/h 16.3 km/h 74% 0 mm 0.0 W/m2
23:50 12.9 °C 8.6 °C 1016.1 hPa SSW 11.1 km/h 16.1 km/h 75% 0 mm 0.0 W/m2
23:59 12.8 °C 8.5 °C 1016.1 hPa SSW 13 km/h 17.7 km/h 75% 0 mm 0.0 W/m2
Canyon Roadhouse, Fishriver Canyon, Namibia
Compliments of Weather Underground - 1.75 mb